Time;durP1;ratioP1;P1;durP2;ratioP2;P2;SDS_P1;SDS_P2;PMS_P1;PMS_P2;Temp;Humidity;BMP_temperature;BMP_pressure;BME280_temperature;BME280_humidity;BME280_pressure;Samples;Min_cycle;Max_cycle;Signal;HPM_P1;HPM_P2
2022/11/22 00:01:23;;;;;;;20.50;10.80;;;6.70;99.90;;;;;;4885061;29;37337;-73
2022/11/22 00:03:49;;;;;;;25.90;12.00;;;6.80;99.90;;;;;;4883901;29;39697;-74
2022/11/22 00:06:15;;;;;;;14.93;8.67;;;6.70;99.90;;;;;;4891776;29;36842;-73
2022/11/22 00:08:41;;;;;;;28.30;11.03;;;6.80;99.90;;;;;;4891668;29;37565;-73
2022/11/22 00:11:07;;;;;;;19.53;8.97;;;6.70;99.90;;;;;;4895999;29;37121;-73
2022/11/22 00:13:34;;;;;;;19.80;8.93;;;6.70;99.90;;;;;;4884536;29;38313;-73
2022/11/22 00:16:02;;;;;;;22.17;9.03;;;6.70;99.90;;;;;;4882770;29;39309;-73
2022/11/22 00:18:28;;;;;;;19.87;7.37;;;6.80;99.90;;;;;;4897038;29;35911;-73
2022/11/22 00:20:55;;;;;;;16.30;7.10;;;6.90;99.90;;;;;;4894143;29;36870;-73
2022/11/22 00:23:22;;;;;;;22.73;6.00;;;6.90;99.90;;;;;;4883514;29;38281;-73
2022/11/22 00:25:48;;;;;;;18.47;5.60;;;6.90;99.90;;;;;;4885227;29;38536;-74
2022/11/22 00:28:14;;;;;;;24.83;6.27;;;7.00;99.90;;;;;;4884467;29;38254;-73
2022/11/22 00:30:40;;;;;;;24.97;5.77;;;7.10;99.90;;;;;;4882943;29;37999;-72
2022/11/22 00:33:06;;;;;;;16.83;5.03;;;7.20;99.90;;;;;;4881544;29;38808;-73
2022/11/22 00:35:32;;;;;;;18.93;5.13;;;7.30;99.90;;;;;;4881125;29;38583;-74
2022/11/22 00:37:58;;;;;;;24.30;5.70;;;7.30;99.90;;;;;;4893448;29;36915;-73
2022/11/22 00:40:24;;;;;;;21.60;4.77;;;7.40;99.90;;;;;;4882511;29;37211;-73
2022/11/22 00:42:50;;;;;;;21.33;6.27;;;7.30;99.90;;;;;;4895724;29;38332;-73
2022/11/22 00:45:16;;;;;;;19.17;5.80;;;7.30;99.90;;;;;;4880800;29;38290;-73
2022/11/22 00:47:42;;;;;;;16.83;4.80;;;7.30;99.90;;;;;;4886611;29;38526;-74
2022/11/22 00:50:09;;;;;;;12.33;4.23;;;7.30;99.90;;;;;;4882515;29;35853;-74
2022/11/22 00:52:35;;;;;;;21.60;5.20;;;7.20;99.90;;;;;;4881728;29;39043;-74
2022/11/22 00:55:01;;;;;;;23.80;4.97;;;7.10;99.90;;;;;;4885243;29;38464;-73
2022/11/22 00:57:27;;;;;;;16.93;3.90;;;7.10;99.90;;;;;;4880475;29;37745;-73
2022/11/22 00:59:53;;;;;;;17.40;5.10;;;7.10;99.90;;;;;;4895921;29;36711;-73
2022/11/22 01:02:19;;;;;;;22.67;4.57;;;7.10;99.90;;;;;;4879406;29;38362;-73
2022/11/22 01:04:46;;;;;;;15.10;3.73;;;7.10;99.90;;;;;;4891991;29;37361;-75
2022/11/22 01:07:12;;;;;;;26.33;5.43;;;7.00;99.90;;;;;;4876014;29;36772;-74
2022/11/22 01:09:38;;;;;;;21.40;3.63;;;7.00;99.90;;;;;;4881902;29;36916;-74
2022/11/22 01:12:04;;;;;;;21.07;3.97;;;7.00;99.90;;;;;;4899631;29;37782;-74
2022/11/22 01:14:30;;;;;;;16.53;3.03;;;7.00;99.90;;;;;;4878253;29;37231;-74
2022/11/22 01:16:56;;;;;;;18.30;4.20;;;7.00;99.90;;;;;;4881203;29;38109;-74
2022/11/22 01:19:22;;;;;;;18.87;3.40;;;7.00;99.90;;;;;;4893612;29;36722;-75
2022/11/22 01:21:48;;;;;;;17.57;3.80;;;7.00;99.90;;;;;;4893918;29;38864;-74
2022/11/22 01:24:14;;;;;;;22.43;5.07;;;7.00;99.90;;;;;;4883611;29;38902;-74
2022/11/22 01:26:41;;;;;;;21.50;4.33;;;7.00;99.90;;;;;;4884622;29;38045;-74
2022/11/22 01:29:07;;;;;;;21.30;4.20;;;7.00;99.90;;;;;;4882197;29;37392;-74
2022/11/22 01:31:33;;;;;;;25.47;3.80;;;7.00;99.90;;;;;;4885947;29;38532;-74
2022/11/22 01:33:59;;;;;;;22.93;3.80;;;6.90;99.90;;;;;;4881159;29;38460;-74
2022/11/22 01:36:26;;;;;;;21.40;4.57;;;6.90;99.90;;;;;;4879984;29;38635;-75
2022/11/22 01:38:52;;;;;;;29.23;5.23;;;6.90;99.90;;;;;;4896562;29;36555;-74
2022/11/22 01:41:18;;;;;;;13.93;3.80;;;6.80;99.90;;;;;;4877851;29;38481;-74
2022/11/22 01:43:44;;;;;;;24.40;4.87;;;6.80;99.90;;;;;;4880953;29;38175;-74
2022/11/22 01:46:38;;;;;;;17.97;3.93;;;6.80;99.90;;;;;;4885996;29;37784;-73
2022/11/22 01:49:12;;;;;;;21.50;4.37;;;6.70;99.90;;;;;;4884655;29;39000;-74
2022/11/22 01:51:43;;;;;;;19.30;3.87;;;6.70;99.90;;;;;;4887335;29;37427;-73
2022/11/22 01:54:14;;;;;;;23.53;4.00;;;6.70;99.90;;;;;;4885365;29;38624;-74
2022/11/22 01:56:45;;;;;;;24.30;4.00;;;6.70;99.90;;;;;;4885350;29;37965;-74
2022/11/22 01:59:15;;;;;;;20.00;3.93;;;6.70;99.90;;;;;;4900569;29;37442;-74
2022/11/22 02:04:19;;;;;;;24.33;4.00;;;6.70;99.90;;;;;;4631816;23;20056;-77
2022/11/22 02:07:47;;;;;;;27.70;4.23;;;6.60;99.90;;;;;;4874019;29;38224;-78
2022/11/22 02:10:16;;;;;;;25.37;3.77;;;6.70;99.90;;;;;;4818097;29;46978;-77
2022/11/22 02:12:42;;;;;;;19.97;3.77;;;6.60;99.90;;;;;;4822265;29;39343;-78
2022/11/22 02:15:09;;;;;;;27.97;3.93;;;6.50;99.90;;;;;;4842835;29;38385;-77
2022/11/22 02:17:35;;;;;;;21.30;3.33;;;6.60;99.90;;;;;;4860663;29;37402;-78
2022/11/22 02:20:02;;;;;;;17.00;3.73;;;6.60;99.90;;;;;;4872958;29;37385;-78
2022/11/22 02:22:58;;;;;;;15.10;3.90;;;6.60;99.90;;;;;;4871530;29;39740;-78
2022/11/22 02:25:39;;;;;;;20.73;3.80;;;6.50;99.90;;;;;;4850837;29;39184;-78
2022/11/22 02:28:07;;;;;;;24.13;4.73;;;6.40;99.90;;;;;;4870020;29;36972;-78
2022/11/22 02:30:35;;;;;;;20.20;4.07;;;6.40;99.90;;;;;;4850675;29;35760;-78
2022/11/22 02:33:01;;;;;;;21.80;3.73;;;6.40;99.90;;;;;;4870126;29;38450;-78
2022/11/22 02:35:29;;;;;;;21.13;3.30;;;6.40;99.90;;;;;;4868013;29;39547;-78
2022/11/22 02:38:02;;;;;;;22.17;4.27;;;6.30;99.90;;;;;;4874656;29;38386;-79
2022/11/22 02:40:35;;;;;;;17.03;3.70;;;6.30;99.90;;;;;;4856190;29;37041;-78
2022/11/22 02:43:04;;;;;;;14.10;3.07;;;6.30;99.90;;;;;;4871371;29;38205;-77
2022/11/22 02:45:30;;;;;;;17.73;3.73;;;6.20;99.90;;;;;;4858504;29;47276;-78
2022/11/22 02:48:08;;;;;;;15.73;3.30;;;6.20;99.90;;;;;;4871456;29;37509;-78
2022/11/22 02:50:34;;;;;;;19.80;3.30;;;6.20;99.90;;;;;;4866919;29;47215;-76
2022/11/22 02:53:00;;;;;;;15.67;3.30;;;6.20;99.90;;;;;;4870206;29;39115;-79
2022/11/22 02:55:27;;;;;;;17.30;3.27;;;6.30;99.90;;;;;;4869983;29;38276;-79
2022/11/22 02:57:53;;;;;;;17.27;3.93;;;6.20;99.90;;;;;;4871068;29;38943;-78
2022/11/22 03:00:19;;;;;;;26.00;4.37;;;6.30;99.90;;;;;;4874669;29;38146;-77
2022/11/22 03:02:45;;;;;;;18.83;3.37;;;6.30;99.90;;;;;;4868637;29;38953;-76
2022/11/22 03:05:11;;;;;;;25.63;4.53;;;6.40;99.90;;;;;;4872673;29;37798;-78
2022/11/22 03:07:37;;;;;;;18.23;4.70;;;6.40;99.90;;;;;;4856496;29;36846;-77
2022/11/22 03:10:03;;;;;;;15.63;3.83;;;6.50;99.90;;;;;;4868745;29;36854;-77
2022/11/22 03:12:29;;;;;;;19.70;3.00;;;6.40;99.90;;;;;;4869837;29;47323;-77
2022/11/22 03:14:55;;;;;;;13.50;2.90;;;6.40;99.90;;;;;;4870438;29;36784;-77
2022/11/22 03:17:21;;;;;;;17.57;3.47;;;6.40;99.90;;;;;;4876289;29;38577;-78
2022/11/22 03:19:47;;;;;;;17.93;2.87;;;6.30;99.90;;;;;;4871655;29;37121;-78
2022/11/22 03:22:14;;;;;;;20.60;3.43;;;6.30;99.90;;;;;;4877976;29;37568;-78
2022/11/22 03:24:40;;;;;;;20.87;4.53;;;6.20;99.90;;;;;;4877064;29;39429;-79
2022/11/22 03:27:06;;;;;;;13.80;2.80;;;6.20;99.90;;;;;;4874645;29;36756;-78
2022/11/22 03:29:32;;;;;;;17.53;3.50;;;6.10;99.90;;;;;;4874874;29;37123;-78
2022/11/22 03:31:58;;;;;;;14.83;3.10;;;6.10;99.90;;;;;;4868638;29;39784;-77
2022/11/22 03:34:24;;;;;;;13.53;2.93;;;6.00;99.90;;;;;;4872326;29;36749;-77
2022/11/22 03:36:50;;;;;;;12.50;2.97;;;6.10;99.90;;;;;;4871244;29;37284;-78
2022/11/22 03:39:18;;;;;;;13.27;3.20;;;6.10;99.90;;;;;;4866523;29;36168;-79
2022/11/22 03:41:44;;;;;;;19.20;3.43;;;6.10;99.90;;;;;;4875812;29;38481;-78
2022/11/22 03:44:10;;;;;;;13.27;2.77;;;6.10;99.90;;;;;;4872115;29;35809;-78
2022/11/22 03:46:36;;;;;;;19.40;3.23;;;6.10;99.90;;;;;;4870999;29;39108;-78
2022/11/22 03:49:02;;;;;;;19.13;3.77;;;6.10;99.90;;;;;;4873478;29;37155;-79
2022/11/22 03:51:28;;;;;;;13.63;2.80;;;6.10;99.90;;;;;;4871955;29;49166;-79
2022/11/22 03:53:54;;;;;;;20.20;2.67;;;6.00;99.90;;;;;;4869243;29;38340;-78
2022/11/22 03:56:21;;;;;;;12.07;2.40;;;5.90;99.90;;;;;;4872106;29;37184;-78
2022/11/22 03:58:47;;;;;;;13.13;2.37;;;5.90;99.90;;;;;;4856179;29;35979;-77
2022/11/22 04:01:13;;;;;;;19.13;2.77;;;5.90;99.90;;;;;;4871867;29;38664;-78
2022/11/22 04:03:39;;;;;;;12.53;2.90;;;5.90;99.90;;;;;;4869495;29;38971;-77
2022/11/22 04:06:05;;;;;;;11.03;2.30;;;6.00;99.90;;;;;;4867736;29;37642;-77
2022/11/22 04:08:31;;;;;;;15.37;2.60;;;6.00;99.90;;;;;;4867543;29;37295;-77
2022/11/22 04:10:57;;;;;;;16.97;2.97;;;6.00;99.90;;;;;;4872110;29;39027;-77
2022/11/22 04:16:13;;;;;;;13.93;3.00;;;5.90;99.90;;;;;;4856841;29;38351;-78
2022/11/22 04:18:39;;;;;;;18.37;2.40;;;5.90;99.90;;;;;;4871871;29;38074;-78
2022/11/22 04:25:12;;;;;;;17.87;2.93;;;5.90;99.90;;;;;;4876190;29;39105;-78
2022/11/22 04:26:36;;;;;;;12.23;2.80;;;5.90;99.90;;;;;;4874745;29;48838;-78
2022/11/22 04:29:02;;;;;;;17.47;2.73;;;5.90;99.90;;;;;;4869870;29;38331;-78
2022/11/22 04:34:13;;;;;;;18.63;2.47;;;6.00;99.90;;;;;;4874910;29;39395;-78
2022/11/22 04:36:39;;;;;;;8.70;2.27;;;6.00;99.90;;;;;;4869254;29;38764;-78
2022/11/22 04:39:05;;;;;;;9.67;2.83;;;6.00;99.90;;;;;;4869969;29;37407;-76
2022/11/22 04:41:31;;;;;;;14.57;2.00;;;6.00;99.90;;;;;;4873005;29;40086;-78
2022/11/22 04:46:42;;;;;;;12.93;2.17;;;6.10;99.90;;;;;;4870898;29;49947;-79
2022/11/22 04:49:08;;;;;;;15.43;2.47;;;6.10;99.90;;;;;;4865683;29;36130;-77
2022/11/22 04:54:19;;;;;;;12.27;2.30;;;6.10;99.90;;;;;;4870279;29;37887;-78
2022/11/22 04:56:45;;;;;;;10.07;2.23;;;6.10;99.90;;;;;;4870328;29;36852;-78
2022/11/22 04:59:11;;;;;;;16.07;2.77;;;6.10;99.90;;;;;;4867842;29;37359;-79
2022/11/22 05:01:37;;;;;;;13.47;2.43;;;6.10;99.90;;;;;;4869205;29;39129;-77
2022/11/22 05:04:04;;;;;;;6.77;2.10;;;6.10;99.90;;;;;;4846889;29;37427;-78
2022/11/22 05:06:31;;;;;;;19.33;2.93;;;6.10;99.90;;;;;;4869974;29;39183;-79
2022/11/22 05:08:57;;;;;;;12.13;2.17;;;6.10;99.90;;;;;;4854297;29;34248;-78
2022/11/22 05:11:23;;;;;;;13.40;2.70;;;6.10;99.90;;;;;;4872873;29;38899;-78
2022/11/22 05:13:49;;;;;;;14.50;2.10;;;6.10;99.90;;;;;;4868419;29;38359;-76
2022/11/22 05:16:15;;;;;;;15.17;2.80;;;6.00;99.90;;;;;;4884928;29;38888;-76
2022/11/22 05:18:42;;;;;;;12.47;2.20;;;6.00;99.90;;;;;;4882293;29;35831;-78
2022/11/22 05:21:10;;;;;;;16.37;2.73;;;6.00;99.90;;;;;;4880286;29;40059;-77
2022/11/22 05:23:56;;;;;;;15.07;2.57;;;6.00;99.90;;;;;;4880966;29;39497;-78
2022/11/22 05:26:32;;;;;;;9.47;2.40;;;6.00;99.90;;;;;;4868252;29;36984;-77
2022/11/22 05:29:02;;;;;;;15.43;2.43;;;6.00;99.90;;;;;;4864192;29;36540;-78
2022/11/22 05:31:28;;;;;;;11.90;2.33;;;6.10;99.90;;;;;;4881176;29;37532;-79
2022/11/22 05:33:55;;;;;;;10.83;2.87;;;6.10;99.90;;;;;;4876281;29;38740;-77
2022/11/22 05:36:23;;;;;;;10.73;3.13;;;6.00;99.90;;;;;;4879440;29;37978;-78
2022/11/22 05:38:49;;;;;;;11.53;3.23;;;6.10;99.90;;;;;;4878746;29;37264;-75
2022/11/22 05:41:16;;;;;;;13.40;4.03;;;6.10;99.90;;;;;;4875643;29;39120;-76
2022/11/22 05:43:42;;;;;;;14.30;3.63;;;6.10;99.90;;;;;;4861011;29;38638;-78
2022/11/22 05:46:11;;;;;;;14.57;3.90;;;6.00;99.90;;;;;;4876538;29;37804;-78
2022/11/22 05:48:40;;;;;;;10.50;3.17;;;6.10;99.90;;;;;;4875268;29;36047;-77
2022/11/22 05:51:08;;;;;;;12.80;3.30;;;6.00;99.90;;;;;;4859331;29;37654;-77
2022/11/22 05:53:35;;;;;;;11.70;3.33;;;6.00;99.90;;;;;;4858941;29;38275;-75
2022/11/22 05:56:06;;;;;;;17.87;3.47;;;6.10;99.90;;;;;;4881621;29;37990;-79
2022/11/22 05:58:33;;;;;;;8.93;3.17;;;6.00;99.90;;;;;;4877773;29;47166;-76
2022/11/22 06:01:04;;;;;;;11.23;3.00;;;6.00;99.90;;;;;;4867810;29;37270;-77
2022/11/22 06:03:30;;;;;;;13.20;2.83;;;6.00;99.90;;;;;;4882135;29;48908;-77
2022/11/22 06:05:56;;;;;;;10.23;3.30;;;6.00;99.90;;;;;;4874559;29;38537;-78
2022/11/22 06:08:22;;;;;;;10.27;3.37;;;6.00;99.90;;;;;;4869491;29;36860;-78
2022/11/22 06:10:48;;;;;;;11.70;3.10;;;6.00;99.90;;;;;;4873791;29;38701;-78
2022/11/22 06:13:14;;;;;;;18.00;3.80;;;6.00;99.90;;;;;;4873188;29;37801;-78
2022/11/22 06:15:40;;;;;;;16.27;4.23;;;6.00;99.90;;;;;;4857055;29;37042;-77
2022/11/22 06:18:06;;;;;;;13.47;3.90;;;6.00;99.90;;;;;;4873252;29;35714;-78
2022/11/22 06:20:32;;;;;;;10.67;3.13;;;6.00;99.90;;;;;;4875770;29;39019;-77
2022/11/22 06:22:58;;;;;;;11.57;3.13;;;6.00;99.90;;;;;;4876448;29;35847;-79
2022/11/22 06:25:25;;;;;;;12.97;3.13;;;6.00;99.90;;;;;;4880183;29;38509;-79
2022/11/22 06:27:51;;;;;;;14.33;3.40;;;6.00;99.90;;;;;;4868338;29;36901;-79
2022/11/22 06:30:17;;;;;;;12.27;3.10;;;6.00;99.90;;;;;;4878172;29;37657;-78
2022/11/22 06:32:43;;;;;;;14.87;3.53;;;6.00;99.90;;;;;;4862633;29;38074;-78
2022/11/22 06:35:09;;;;;;;10.30;2.87;;;6.00;99.90;;;;;;4871778;29;38167;-78
2022/11/22 06:37:35;;;;;;;13.33;3.23;;;6.00;99.90;;;;;;4871782;29;38372;-78
2022/11/22 06:40:01;;;;;;;15.13;3.00;;;6.10;99.90;;;;;;4878350;29;39031;-79
2022/11/22 06:42:28;;;;;;;5.13;2.57;;;6.10;99.90;;;;;;4873902;29;39110;-80
2022/11/22 06:44:54;;;;;;;11.03;3.33;;;6.10;99.90;;;;;;4879408;29;38023;-78
2022/11/22 06:47:20;;;;;;;11.33;3.40;;;6.20;99.90;;;;;;4874952;29;35996;-78
2022/11/22 06:49:46;;;;;;;9.63;3.47;;;6.20;99.90;;;;;;4873656;29;37642;-78
2022/11/22 06:52:12;;;;;;;11.97;3.97;;;6.20;99.90;;;;;;4872430;29;38289;-78
2022/11/22 06:54:38;;;;;;;16.17;4.50;;;6.20;99.90;;;;;;4875575;29;37910;-76
2022/11/22 06:57:04;;;;;;;9.67;4.53;;;6.20;99.90;;;;;;4882836;29;36069;-78
2022/11/22 06:59:30;;;;;;;12.73;4.37;;;6.30;99.90;;;;;;4874792;29;38475;-77
2022/11/22 07:01:56;;;;;;;10.83;3.90;;;6.30;99.90;;;;;;4877691;29;37342;-78
2022/11/22 07:04:23;;;;;;;12.73;3.90;;;6.30;99.90;;;;;;4873202;29;38043;-77
2022/11/22 07:06:49;;;;;;;18.73;4.10;;;6.30;99.90;;;;;;4877096;29;36757;-76
2022/11/22 07:09:15;;;;;;;12.57;3.63;;;6.30;99.90;;;;;;4876192;29;37393;-79
2022/11/22 07:11:41;;;;;;;15.87;5.03;;;6.30;99.90;;;;;;4888163;29;36849;-77
2022/11/22 07:14:07;;;;;;;8.20;4.03;;;6.20;99.90;;;;;;4865481;29;36849;-79
2022/11/22 07:16:35;;;;;;;8.87;3.77;;;6.20;99.90;;;;;;4874625;29;37154;-77
2022/11/22 07:19:01;;;;;;;8.93;3.77;;;6.20;99.90;;;;;;4875968;29;40530;-78
2022/11/22 07:21:31;;;;;;;15.27;4.33;;;6.20;99.90;;;;;;4865178;29;47014;-77
2022/11/22 07:23:57;;;;;;;10.97;4.30;;;6.20;99.90;;;;;;4872467;29;38690;-79
2022/11/22 07:26:24;;;;;;;11.50;4.30;;;6.10;99.90;;;;;;4871720;29;36007;-77
2022/11/22 07:28:51;;;;;;;13.97;4.70;;;6.00;99.90;;;;;;4876106;29;39827;-77
2022/11/22 07:31:17;;;;;;;11.47;4.90;;;6.00;99.90;;;;;;4859223;29;37603;-77
2022/11/22 07:33:44;;;;;;;13.93;4.30;;;6.00;99.90;;;;;;4875841;29;37252;-79
2022/11/22 07:36:20;;;;;;;14.40;4.33;;;6.10;99.90;;;;;;4873115;29;37320;-77
2022/11/22 07:38:47;;;;;;;7.50;3.40;;;6.00;99.90;;;;;;4867576;29;37476;-77
2022/11/22 07:41:14;;;;;;;13.33;3.57;;;6.00;99.90;;;;;;4857366;29;38217;-75
2022/11/22 07:43:41;;;;;;;13.33;3.10;;;6.10;99.90;;;;;;4860664;29;37297;-75
2022/11/22 07:46:33;;;;;;;11.27;3.43;;;6.00;99.90;;;;;;4877296;29;36211;-77
2022/11/22 07:49:00;;;;;;;8.10;3.25;;;6.00;99.90;;;;;;4870445;29;39032;-77
2022/11/22 07:51:27;;;;;;;15.97;3.40;;;5.90;99.90;;;;;;4872433;29;38484;-77
2022/11/22 07:53:55;;;;;;;9.90;3.20;;;6.00;99.90;;;;;;4867144;29;37761;-78
2022/11/22 07:56:21;;;;;;;8.60;3.10;;;6.00;99.90;;;;;;4870961;29;37197;-76
2022/11/22 07:58:47;;;;;;;10.43;2.63;;;6.10;99.90;;;;;;4854795;29;39463;-78
2022/11/22 08:01:16;;;;;;;10.57;2.80;;;6.10;99.90;;;;;;4861979;29;37193;-77
2022/11/22 08:03:43;;;;;;;13.70;2.90;;;6.20;99.90;;;;;;4863494;29;36722;-77
2022/11/22 08:06:11;;;;;;;12.17;3.83;;;6.20;99.90;;;;;;4875547;29;20117;-78
2022/11/22 08:08:37;;;;;;;11.10;3.17;;;6.30;99.90;;;;;;4860808;29;39133;-77
2022/11/22 08:11:05;;;;;;;12.30;3.03;;;6.30;99.90;;;;;;4868125;29;38402;-78
2022/11/22 08:13:32;;;;;;;6.17;2.57;;;6.40;99.90;;;;;;4864670;29;49137;-78
2022/11/22 08:16:07;;;;;;;10.13;2.73;;;6.40;99.90;;;;;;4865349;29;35900;-78
2022/11/22 08:18:34;;;;;;;14.03;4.67;;;6.40;99.90;;;;;;4876336;29;48294;-77
2022/11/22 08:21:05;;;;;;;11.50;2.73;;;6.40;99.90;;;;;;4875864;29;39368;-78
2022/11/22 08:23:31;;;;;;;7.93;2.60;;;6.40;99.90;;;;;;4858915;29;46985;-77
2022/11/22 08:25:59;;;;;;;9.93;3.10;;;6.50;99.90;;;;;;4858773;29;36330;-78
2022/11/22 08:28:25;;;;;;;10.00;2.87;;;6.40;99.90;;;;;;4857428;29;37904;-77
2022/11/22 08:30:57;;;;;;;10.73;3.83;;;6.50;99.90;;;;;;4867626;29;37420;-77
2022/11/22 08:33:23;;;;;;;12.82;3.47;;;6.50;99.90;;;;;;4866172;29;36867;-76
2022/11/22 08:35:49;;;;;;;13.57;2.93;;;6.50;99.90;;;;;;4854273;29;36130;-77
2022/11/22 08:38:15;;;;;;;8.60;2.63;;;6.50;99.90;;;;;;4872538;29;38373;-76
2022/11/22 08:40:41;;;;;;;10.37;3.07;;;6.50;99.90;;;;;;4872367;29;38857;-78
2022/11/22 08:43:07;;;;;;;9.67;3.03;;;6.50;99.90;;;;;;4870827;29;37968;-78
2022/11/22 08:45:34;;;;;;;8.30;2.83;;;6.60;99.90;;;;;;4872152;29;37484;-78
2022/11/22 08:48:00;;;;;;;11.87;3.50;;;6.60;99.90;;;;;;4878105;29;38960;-79
2022/11/22 08:50:26;;;;;;;8.40;2.60;;;6.50;99.90;;;;;;4878535;29;39147;-78
2022/11/22 08:52:53;;;;;;;13.77;3.03;;;6.60;99.90;;;;;;4868048;29;37292;-78
2022/11/22 08:55:19;;;;;;;8.27;2.80;;;6.60;99.90;;;;;;4877784;29;37657;-78
2022/11/22 08:57:45;;;;;;;16.70;3.40;;;6.60;99.90;;;;;;4879619;29;40091;-77
2022/11/22 09:00:12;;;;;;;9.87;3.30;;;6.60;99.90;;;;;;4869796;29;38618;-77
2022/11/22 09:02:38;;;;;;;9.63;2.63;;;6.60;99.90;;;;;;4862747;29;38295;-76
2022/11/22 09:05:04;;;;;;;9.37;2.93;;;6.70;99.90;;;;;;4879537;29;37049;-79
2022/11/22 09:07:30;;;;;;;11.43;3.60;;;6.70;99.90;;;;;;4861758;29;46965;-79
2022/11/22 09:09:56;;;;;;;10.00;2.97;;;6.70;99.90;;;;;;4886940;29;38274;-79
2022/11/22 09:12:22;;;;;;;9.23;2.80;;;6.70;99.90;;;;;;4876060;29;38146;-77
2022/11/22 09:14:48;;;;;;;16.23;3.57;;;6.80;99.90;;;;;;4878047;29;36912;-78
2022/11/22 09:17:14;;;;;;;17.93;3.00;;;6.80;99.90;;;;;;4864496;29;37616;-77
2022/11/22 09:19:40;;;;;;;8.20;2.90;;;6.80;99.90;;;;;;4877037;29;38027;-77
2022/11/22 09:22:07;;;;;;;9.43;2.83;;;6.80;99.90;;;;;;4872913;29;38039;-77
2022/11/22 09:24:33;;;;;;;13.90;2.50;;;6.80;99.90;;;;;;4859402;29;36314;-76
2022/11/22 09:26:59;;;;;;;11.80;3.30;;;6.80;99.90;;;;;;4883135;29;39141;-76
2022/11/22 09:29:25;;;;;;;9.67;2.67;;;6.80;99.90;;;;;;4875822;29;39053;-76
2022/11/22 09:31:51;;;;;;;8.43;2.90;;;6.90;99.90;;;;;;4870262;29;38265;-77
2022/11/22 09:34:17;;;;;;;6.03;2.47;;;6.90;99.90;;;;;;4874667;29;37205;-78
2022/11/22 09:36:43;;;;;;;10.80;3.03;;;7.00;99.90;;;;;;4871262;29;37434;-77
2022/11/22 09:39:09;;;;;;;7.40;2.90;;;7.00;99.90;;;;;;4885921;29;37212;-77
2022/11/22 09:41:55;;;;;;;11.13;3.60;;;7.00;99.90;;;;;;4873599;29;38783;-77
2022/11/22 09:44:52;;;;;;;9.07;3.17;;;7.00;99.90;;;;;;4875405;29;37118;-77
2022/11/22 09:47:31;;;;;;;8.20;3.20;;;7.10;99.90;;;;;;4872781;29;38687;-77
2022/11/22 09:50:12;;;;;;;12.47;3.47;;;7.10;99.90;;;;;;4877344;29;38544;-78
2022/11/22 09:53:09;;;;;;;6.97;2.83;;;7.10;99.90;;;;;;4871434;29;48171;-78
2022/11/22 09:55:45;;;;;;;9.80;3.03;;;7.10;99.90;;;;;;4876787;29;48707;-77
2022/11/22 09:58:39;;;;;;;8.73;3.23;;;7.20;99.90;;;;;;4875730;29;38961;-77
2022/11/22 10:01:05;;;;;;;9.70;3.07;;;7.20;99.90;;;;;;4875244;29;38488;-76
2022/11/22 10:03:46;;;;;;;11.40;2.93;;;7.20;99.90;;;;;;4876378;29;37947;-76
2022/11/22 10:06:23;;;;;;;6.73;2.70;;;7.20;99.90;;;;;;4875780;29;36008;-76
2022/11/22 10:08:59;;;;;;;11.47;2.70;;;7.20;99.90;;;;;;4872953;29;39596;-76
2022/11/22 10:11:48;;;;;;;6.60;2.33;;;7.20;99.90;;;;;;4861558;29;38335;-78
2022/11/22 10:14:27;;;;;;;12.23;2.60;;;7.20;99.90;;;;;;4876192;29;38142;-77
2022/11/22 10:17:22;;;;;;;7.10;2.33;;;7.20;99.90;;;;;;4872925;29;34692;-77
2022/11/22 10:20:01;;;;;;;7.50;2.60;;;7.30;99.90;;;;;;4873400;29;48937;-77
2022/11/22 10:22:31;;;;;;;6.60;2.30;;;7.30;99.90;;;;;;4876664;29;38572;-77
2022/11/22 10:25:03;;;;;;;9.23;3.10;;;7.30;99.90;;;;;;4874099;29;37305;-79
2022/11/22 10:27:31;;;;;;;7.03;2.70;;;7.20;99.90;;;;;;4861653;29;36981;-77
2022/11/22 10:30:00;;;;;;;7.50;2.27;;;7.20;99.90;;;;;;4869650;29;38741;-77
2022/11/22 10:32:36;;;;;;;9.37;2.20;;;7.30;99.90;;;;;;4871874;29;37156;-79
2022/11/22 10:35:35;;;;;;;5.50;2.50;;;7.30;99.90;;;;;;4856938;29;37132;-76
2022/11/22 10:38:25;;;;;;;7.43;2.23;;;7.30;99.90;;;;;;4868545;29;47350;-77
2022/11/22 10:41:03;;;;;;;6.37;2.20;;;7.30;99.90;;;;;;4873090;29;48768;-78
2022/11/22 10:43:40;;;;;;;8.67;2.40;;;7.30;99.90;;;;;;4876715;29;38576;-77
2022/11/22 10:46:26;;;;;;;10.90;3.10;;;7.30;99.90;;;;;;4880572;29;37867;-77
2022/11/22 10:49:04;;;;;;;13.47;2.93;;;7.30;99.90;;;;;;4880851;29;35842;-76
2022/11/22 10:51:59;;;;;;;5.27;2.07;;;7.30;99.90;;;;;;4870795;29;48886;-76
2022/11/22 10:54:51;;;;;;;7.27;2.33;;;7.40;99.90;;;;;;4874631;29;37060;-76
2022/11/22 10:58:11;;;;;;;5.10;2.10;;;7.40;99.90;;;;;;4863102;29;37066;-79
2022/11/22 11:00:43;;;;;;;9.47;2.37;;;7.50;99.90;;;;;;4850027;29;48051;-78
2022/11/22 11:03:28;;;;;;;9.02;2.92;;;7.50;99.90;;;;;;4868036;29;38909;-78
2022/11/22 11:06:12;;;;;;;7.00;2.17;;;7.60;99.90;;;;;;4863050;29;38667;-76
2022/11/22 11:08:43;;;;;;;6.90;2.03;;;7.60;99.90;;;;;;4861172;29;47045;-78
2022/11/22 11:11:09;;;;;;;8.50;2.67;;;7.70;99.90;;;;;;4855253;29;36148;-76
2022/11/22 11:13:43;;;;;;;7.63;2.57;;;7.70;99.90;;;;;;4854636;29;36754;-77
2022/11/22 11:16:16;;;;;;;9.53;2.17;;;7.70;99.90;;;;;;4856605;29;37261;-77
2022/11/22 11:18:46;;;;;;;13.30;2.93;;;7.80;99.90;;;;;;4868944;29;38026;-78
2022/11/22 11:21:15;;;;;;;4.63;1.77;;;7.80;99.90;;;;;;4868705;29;35774;-78
2022/11/22 11:23:41;;;;;;;6.27;2.27;;;7.80;99.90;;;;;;4865884;29;39741;-77
2022/11/22 11:26:27;;;;;;;6.20;1.80;;;7.80;99.90;;;;;;4867185;29;38553;-77
2022/11/22 11:29:18;;;;;;;8.57;2.23;;;7.70;99.90;;;;;;4872873;29;37104;-76
2022/11/22 11:32:04;;;;;;;6.30;2.27;;;7.70;99.90;;;;;;4863189;29;49979;-79
2022/11/22 11:34:31;;;;;;;6.07;2.67;;;7.70;99.90;;;;;;4845711;29;47039;-79
2022/11/22 11:36:58;;;;;;;13.33;2.53;;;7.70;99.90;;;;;;4871723;29;37504;-77
2022/11/22 11:39:33;;;;;;;11.20;2.60;;;7.70;99.90;;;;;;4858208;29;37429;-76
2022/11/22 11:42:00;;;;;;;7.83;2.30;;;7.70;99.90;;;;;;4868562;29;37092;-77
2022/11/22 11:44:27;;;;;;;12.70;2.43;;;7.70;99.90;;;;;;4870701;29;39713;-77
2022/11/22 11:46:53;;;;;;;7.50;2.77;;;7.70;99.90;;;;;;4860361;29;37333;-76
2022/11/22 11:49:27;;;;;;;9.30;2.17;;;7.70;99.90;;;;;;4865678;29;38214;-77
2022/11/22 11:52:07;;;;;;;6.27;2.00;;;7.70;99.90;;;;;;4866887;29;36776;-76
2022/11/22 11:54:33;;;;;;;6.03;2.20;;;7.70;99.90;;;;;;4868362;29;48025;-79
2022/11/22 11:57:03;;;;;;;7.33;2.10;;;7.70;99.90;;;;;;4853656;29;37108;-77
2022/11/22 11:59:38;;;;;;;9.00;2.20;;;7.70;99.90;;;;;;4859903;29;47265;-76
2022/11/22 12:02:22;;;;;;;6.63;2.70;;;7.70;99.90;;;;;;4866150;29;37216;-76
2022/11/22 12:04:56;;;;;;;8.33;2.40;;;7.70;99.90;;;;;;4869995;29;37758;-78
2022/11/22 12:07:30;;;;;;;7.00;2.40;;;7.60;99.90;;;;;;4869382;29;38279;-77
2022/11/22 12:09:56;;;;;;;7.47;2.33;;;7.70;99.90;;;;;;4869871;29;38336;-78
2022/11/22 12:12:48;;;;;;;7.50;2.63;;;7.70;99.90;;;;;;4869403;29;37140;-76
2022/11/22 12:15:42;;;;;;;9.80;3.03;;;7.60;99.90;;;;;;4865949;29;38424;-77
2022/11/22 12:18:11;;;;;;;9.23;2.23;;;7.70;99.90;;;;;;4868239;29;37264;-77
2022/11/22 12:21:02;;;;;;;8.70;2.17;;;7.70;99.90;;;;;;4862183;29;37549;-76
2022/11/22 12:23:35;;;;;;;10.43;2.50;;;7.70;99.90;;;;;;4871599;29;36085;-77
2022/11/22 12:26:01;;;;;;;8.68;2.35;;;7.70;99.90;;;;;;4868310;29;38785;-77
2022/11/22 12:28:28;;;;;;;7.13;2.30;;;7.70;99.90;;;;;;4870203;29;38390;-76
2022/11/22 12:31:18;;;;;;;9.00;2.23;;;7.70;99.90;;;;;;4868959;29;37062;-77
2022/11/22 12:33:50;;;;;;;5.33;2.17;;;7.70;99.90;;;;;;4875228;29;47371;-77
2022/11/22 12:36:22;;;;;;;8.50;2.30;;;7.70;99.90;;;;;;4874305;29;39675;-77
2022/11/22 12:38:51;;;;;;;5.90;1.57;;;7.80;99.90;;;;;;4862909;29;39117;-77
2022/11/22 12:41:21;;;;;;;4.33;1.90;;;7.70;99.90;;;;;;4859930;29;36975;-77
2022/11/22 12:44:13;;;;;;;6.33;2.00;;;7.70;99.90;;;;;;4886010;29;36156;-78
2022/11/22 12:46:46;;;;;;;8.23;2.13;;;7.70;99.90;;;;;;4877032;29;47214;-77
2022/11/22 12:49:42;;;;;;;6.47;2.20;;;7.70;99.90;;;;;;4874171;29;37534;-76
2022/11/22 12:52:38;;;;;;;7.83;1.77;;;7.80;99.90;;;;;;4853852;29;36939;-77
2022/11/22 12:55:25;;;;;;;3.87;1.90;;;7.80;99.90;;;;;;4868130;29;37514;-77
2022/11/22 12:58:19;;;;;;;9.43;2.13;;;7.80;99.90;;;;;;4882503;29;38415;-77
2022/11/22 13:01:06;;;;;;;6.77;1.93;;;7.80;99.90;;;;;;4873154;29;47441;-77
2022/11/22 13:03:41;;;;;;;5.77;1.97;;;7.80;99.90;;;;;;4850994;29;47091;-77
2022/11/22 13:06:09;;;;;;;7.47;2.47;;;7.80;99.90;;;;;;4856862;29;36992;-77
2022/11/22 13:08:46;;;;;;;6.90;2.37;;;7.80;99.90;;;;;;4869315;29;39034;-77
2022/11/22 13:11:15;;;;;;;4.83;2.03;;;7.80;99.90;;;;;;4870733;29;38111;-77
2022/11/22 13:13:56;;;;;;;8.23;2.47;;;7.90;99.90;;;;;;4866370;29;35965;-77
2022/11/22 13:16:22;;;;;;;6.77;2.20;;;7.90;99.90;;;;;;4854806;29;36419;-78
2022/11/22 13:19:02;;;;;;;6.43;2.03;;;7.90;99.90;;;;;;4865256;29;38787;-76
2022/11/22 13:21:59;;;;;;;4.87;2.23;;;7.90;99.90;;;;;;4863088;29;47717;-77
2022/11/22 13:24:47;;;;;;;6.03;2.70;;;7.90;99.90;;;;;;4872791;29;35951;-77